sensor_id;sensor_type;location;lat;lon;timestamp;pressure;altitude;pressure_sealevel;temperature;humidity
7802;BME280;3945;48.952;9.506;2023-05-10T00:02:12;97272.34;;;14.47;100.00
7802;BME280;3945;48.952;9.506;2023-05-10T00:04:38;97281.72;;;14.44;100.00
7802;BME280;3945;48.952;9.506;2023-05-10T00:07:05;97276.66;;;14.43;100.00
7802;BME280;3945;48.952;9.506;2023-05-10T00:09:31;97272.09;;;14.43;100.00
7802;BME280;3945;48.952;9.506;2023-05-10T00:11:58;97272.69;;;14.40;100.00
7802;BME280;3945;48.952;9.506;2023-05-10T00:14:26;97272.16;;;14.38;100.00
7802;BME280;3945;48.952;9.506;2023-05-10T00:16:52;97282.56;;;14.35;100.00
7802;BME280;3945;48.952;9.506;2023-05-10T00:19:18;97277.78;;;14.32;100.00
7802;BME280;3945;48.952;9.506;2023-05-10T00:21:45;97285.31;;;14.30;100.00
7802;BME280;3945;48.952;9.506;2023-05-10T00:24:11;97277.53;;;14.28;100.00
7802;BME280;3945;48.952;9.506;2023-05-10T00:26:37;97285.31;;;14.30;100.00
7802;BME280;3945;48.952;9.506;2023-05-10T00:29:03;97284.50;;;14.29;100.00
7802;BME280;3945;48.952;9.506;2023-05-10T00:31:31;97289.84;;;14.29;100.00
7802;BME280;3945;48.952;9.506;2023-05-10T00:33:58;97286.91;;;14.31;100.00
7802;BME280;3945;48.952;9.506;2023-05-10T00:36:24;97284.22;;;14.31;100.00
7802;BME280;3945;48.952;9.506;2023-05-10T00:38:51;97284.28;;;14.26;100.00
7802;BME280;3945;48.952;9.506;2023-05-10T00:41:17;97287.75;;;14.26;100.00
7802;BME280;3945;48.952;9.506;2023-05-10T00:43:43;97284.81;;;14.23;100.00
7802;BME280;3945;48.952;9.506;2023-05-10T00:46:10;97291.81;;;14.19;100.00
7802;BME280;3945;48.952;9.506;2023-05-10T00:48:38;97292.91;;;14.13;100.00
7802;BME280;3945;48.952;9.506;2023-05-10T00:51:05;97295.09;;;14.11;100.00
7802;BME280;3945;48.952;9.506;2023-05-10T00:53:32;97290.28;;;14.07;100.00
7802;BME280;3945;48.952;9.506;2023-05-10T00:55:58;97291.34;;;14.06;100.00
7802;BME280;3945;48.952;9.506;2023-05-10T00:58:25;97292.19;;;14.02;100.00
7802;BME280;3945;48.952;9.506;2023-05-10T01:00:53;97293.03;;;13.97;100.00
7802;BME280;3945;48.952;9.506;2023-05-10T01:03:21;97301.06;;;13.97;100.00
7802;BME280;3945;48.952;9.506;2023-05-10T01:05:48;97297.88;;;13.95;100.00
7802;BME280;3945;48.952;9.506;2023-05-10T01:08:15;97305.09;;;13.95;100.00
7802;BME280;3945;48.952;9.506;2023-05-10T01:10:42;97301.66;;;13.89;100.00
7802;BME280;3945;48.952;9.506;2023-05-10T01:13:09;97313.69;;;13.87;100.00
7802;BME280;3945;48.952;9.506;2023-05-10T01:15:36;97309.69;;;13.84;100.00
7802;BME280;3945;48.952;9.506;2023-05-10T01:18:02;97308.66;;;13.80;100.00
7802;BME280;3945;48.952;9.506;2023-05-10T01:20:32;97318.28;;;13.76;100.00
7802;BME280;3945;48.952;9.506;2023-05-10T01:23:16;97312.19;;;13.71;100.00
7802;BME280;3945;48.952;9.506;2023-05-10T01:25:57;97315.41;;;13.67;100.00
7802;BME280;3945;48.952;9.506;2023-05-10T01:28:34;97313.81;;;13.66;100.00
7802;BME280;3945;48.952;9.506;2023-05-10T01:33:57;97320.00;;;13.57;100.00
7802;BME280;3945;48.952;9.506;2023-05-10T01:36:26;97318.16;;;13.52;100.00
7802;BME280;3945;48.952;9.506;2023-05-10T01:38:57;97324.84;;;13.50;100.00
7802;BME280;3945;48.952;9.506;2023-05-10T01:41:33;97318.97;;;13.48;100.00
7802;BME280;3945;48.952;9.506;2023-05-10T01:44:04;97325.91;;;13.49;100.00
7802;BME280;3945;48.952;9.506;2023-05-10T01:46:36;97332.34;;;13.43;100.00
7802;BME280;3945;48.952;9.506;2023-05-10T01:49:06;97328.63;;;13.44;100.00
7802;BME280;3945;48.952;9.506;2023-05-10T01:51:36;97338.25;;;13.45;100.00
7802;BME280;3945;48.952;9.506;2023-05-10T01:54:05;97348.69;;;13.36;100.00
7802;BME280;3945;48.952;9.506;2023-05-10T01:56:32;97348.44;;;13.33;100.00
7802;BME280;3945;48.952;9.506;2023-05-10T01:58:59;97351.66;;;13.29;100.00
7802;BME280;3945;48.952;9.506;2023-05-10T02:01:26;97357.25;;;13.33;100.00
7802;BME280;3945;48.952;9.506;2023-05-10T02:03:53;97350.59;;;13.31;100.00
7802;BME280;3945;48.952;9.506;2023-05-10T02:06:22;97349.25;;;13.28;100.00
7802;BME280;3945;48.952;9.506;2023-05-10T02:08:49;97349.50;;;13.26;100.00
7802;BME280;3945;48.952;9.506;2023-05-10T02:11:17;97350.59;;;13.25;100.00
7802;BME280;3945;48.952;9.506;2023-05-10T02:13:43;97361.81;;;13.27;100.00
7802;BME280;3945;48.952;9.506;2023-05-10T02:16:12;97354.59;;;13.28;100.00
7802;BME280;3945;48.952;9.506;2023-05-10T02:18:39;97354.31;;;13.29;100.00
7802;BME280;3945;48.952;9.506;2023-05-10T02:21:07;97359.41;;;13.31;100.00
7802;BME280;3945;48.952;9.506;2023-05-10T02:23:36;97363.69;;;13.32;100.00
7802;BME280;3945;48.952;9.506;2023-05-10T02:26:03;97361.25;;;13.36;100.00
7802;BME280;3945;48.952;9.506;2023-05-10T02:28:30;97365.81;;;13.30;100.00
7802;BME280;3945;48.952;9.506;2023-05-10T02:30:58;97362.88;;;13.26;100.00
7802;BME280;3945;48.952;9.506;2023-05-10T02:33:25;97374.38;;;13.27;100.00
7802;BME280;3945;48.952;9.506;2023-05-10T02:35:52;97371.69;;;13.27;100.00
7802;BME280;3945;48.952;9.506;2023-05-10T02:38:19;97373.81;;;13.35;100.00
7802;BME280;3945;48.952;9.506;2023-05-10T02:40:48;97375.16;;;13.33;100.00
7802;BME280;3945;48.952;9.506;2023-05-10T02:43:14;97378.63;;;13.33;100.00
7802;BME280;3945;48.952;9.506;2023-05-10T02:45:41;97378.34;;;13.35;100.00
7802;BME280;3945;48.952;9.506;2023-05-10T02:48:09;97375.41;;;13.36;100.00
7802;BME280;3945;48.952;9.506;2023-05-10T02:50:35;97373.28;;;13.38;100.00
7802;BME280;3945;48.952;9.506;2023-05-10T02:53:15;97377.81;;;13.38;100.00
7802;BME280;3945;48.952;9.506;2023-05-10T02:55:43;97379.13;;;13.40;100.00
7802;BME280;3945;48.952;9.506;2023-05-10T02:58:13;97389.56;;;13.42;100.00
7802;BME280;3945;48.952;9.506;2023-05-10T03:00:40;97391.97;;;13.43;100.00
7802;BME280;3945;48.952;9.506;2023-05-10T03:03:06;97385.56;;;13.44;100.00
7802;BME280;3945;48.952;9.506;2023-05-10T03:05:33;97392.75;;;13.44;100.00
7802;BME280;3945;48.952;9.506;2023-05-10T03:07:59;97392.50;;;13.45;100.00
7802;BME280;3945;48.952;9.506;2023-05-10T03:10:29;97393.00;;;13.47;100.00
7802;BME280;3945;48.952;9.506;2023-05-10T03:12:58;97392.22;;;13.47;100.00
7802;BME280;3945;48.952;9.506;2023-05-10T03:15:31;97395.97;;;13.46;100.00
7802;BME280;3945;48.952;9.506;2023-05-10T03:18:04;97395.44;;;13.44;100.00
7802;BME280;3945;48.952;9.506;2023-05-10T03:20:34;97392.50;;;13.45;100.00
7802;BME280;3945;48.952;9.506;2023-05-10T03:23:02;97396.47;;;13.48;100.00
7802;BME280;3945;48.952;9.506;2023-05-10T03:25:31;97397.28;;;13.48;100.00
7802;BME280;3945;48.952;9.506;2023-05-10T03:27:57;97396.47;;;13.48;100.00
7802;BME280;3945;48.952;9.506;2023-05-10T03:30:24;97399.69;;;13.50;100.00
7802;BME280;3945;48.952;9.506;2023-05-10T03:32:52;97409.31;;;13.51;100.00
7802;BME280;3945;48.952;9.506;2023-05-10T03:35:18;97402.09;;;13.51;100.00
7802;BME280;3945;48.952;9.506;2023-05-10T03:37:45;97398.34;;;13.52;100.00
7802;BME280;3945;48.952;9.506;2023-05-10T03:40:11;97403.72;;;13.52;100.00
7802;BME280;3945;48.952;9.506;2023-05-10T03:42:38;97405.81;;;13.55;100.00
7802;BME280;3945;48.952;9.506;2023-05-10T03:45:05;97406.63;;;13.56;100.00
7802;BME280;3945;48.952;9.506;2023-05-10T03:47:32;97406.34;;;13.57;100.00
7802;BME280;3945;48.952;9.506;2023-05-10T03:49:59;97400.75;;;13.59;100.00
7802;BME280;3945;48.952;9.506;2023-05-10T03:52:26;97405.03;;;13.60;100.00
7802;BME280;3945;48.952;9.506;2023-05-10T03:54:53;97403.94;;;13.61;100.00
7802;BME280;3945;48.952;9.506;2023-05-10T03:57:19;97408.50;;;13.60;100.00
7802;BME280;3945;48.952;9.506;2023-05-10T03:59:45;97409.00;;;13.62;100.00
7802;BME280;3945;48.952;9.506;2023-05-10T04:02:12;97408.72;;;13.64;100.00
7802;BME280;3945;48.952;9.506;2023-05-10T04:04:38;97402.84;;;13.62;100.00
7802;BME280;3945;48.952;9.506;2023-05-10T04:07:06;97401.28;;;13.61;100.00
7802;BME280;3945;48.952;9.506;2023-05-10T04:09:32;97405.03;;;13.60;100.00
7802;BME280;3945;48.952;9.506;2023-05-10T04:11:58;97409.00;;;13.62;100.00
7802;BME280;3945;48.952;9.506;2023-05-10T04:14:25;97415.72;;;13.60;100.00
7802;BME280;3945;48.952;9.506;2023-05-10T04:16:51;97411.44;;;13.59;100.00
7802;BME280;3945;48.952;9.506;2023-05-10T04:19:17;97411.97;;;13.56;100.00
7802;BME280;3945;48.952;9.506;2023-05-10T04:21:44;97415.44;;;13.56;100.00
7802;BME280;3945;48.952;9.506;2023-05-10T04:24:11;97409.03;;;13.57;100.00
7802;BME280;3945;48.952;9.506;2023-05-10T04:26:38;97410.09;;;13.56;100.00
7802;BME280;3945;48.952;9.506;2023-05-10T04:29:04;97410.09;;;13.56;100.00
7802;BME280;3945;48.952;9.506;2023-05-10T04:31:30;97415.44;;;13.56;100.00
7802;BME280;3945;48.952;9.506;2023-05-10T04:33:57;97421.59;;;13.57;100.00
7802;BME280;3945;48.952;9.506;2023-05-10T04:36:23;97420.78;;;13.56;100.00
7802;BME280;3945;48.952;9.506;2023-05-10T04:38:50;97420.78;;;13.56;100.00
7802;BME280;3945;48.952;9.506;2023-05-10T04:41:17;97419.19;;;13.55;100.00
7802;BME280;3945;48.952;9.506;2023-05-10T04:43:44;97421.59;;;13.57;100.00
7802;BME280;3945;48.952;9.506;2023-05-10T04:46:10;97418.66;;;13.58;100.00
7802;BME280;3945;48.952;9.506;2023-05-10T04:48:36;97421.88;;;13.60;100.00
7802;BME280;3945;48.952;9.506;2023-05-10T04:51:03;97426.41;;;13.60;100.00
7802;BME280;3945;48.952;9.506;2023-05-10T04:53:31;97424.25;;;13.57;100.00
7802;BME280;3945;48.952;9.506;2023-05-10T04:55:57;97426.66;;;13.58;100.00
7802;BME280;3945;48.952;9.506;2023-05-10T04:58:25;97428.56;;;13.53;100.00
7802;BME280;3945;48.952;9.506;2023-05-10T05:00:51;97429.63;;;13.57;100.00
7802;BME280;3945;48.952;9.506;2023-05-10T05:03:18;97437.63;;;13.57;100.00
7802;BME280;3945;48.952;9.506;2023-05-10T05:05:44;97431.47;;;13.56;100.00
7802;BME280;3945;48.952;9.506;2023-05-10T05:08:10;97438.44;;;13.57;100.00
7802;BME280;3945;48.952;9.506;2023-05-10T05:10:36;97434.41;;;13.55;100.00
7802;BME280;3945;48.952;9.506;2023-05-10T05:13:03;97441.13;;;13.52;100.00
7802;BME280;3945;48.952;9.506;2023-05-10T05:15:30;97443.81;;;13.52;100.00
7802;BME280;3945;48.952;9.506;2023-05-10T05:17:57;97445.69;;;13.52;100.00
7802;BME280;3945;48.952;9.506;2023-05-10T05:20:23;97456.38;;;13.52;100.00
7802;BME280;3945;48.952;9.506;2023-05-10T05:22:49;97461.16;;;13.55;100.00
7802;BME280;3945;48.952;9.506;2023-05-10T05:25:16;97457.41;;;13.56;100.00
7802;BME280;3945;48.952;9.506;2023-05-10T05:27:42;97458.75;;;13.58;100.00
7802;BME280;3945;48.952;9.506;2023-05-10T05:30:09;97467.56;;;13.59;100.00
7802;BME280;3945;48.952;9.506;2023-05-10T05:32:37;97464.63;;;13.60;100.00
7802;BME280;3945;48.952;9.506;2023-05-10T05:35:03;97469.16;;;13.65;100.00
7802;BME280;3945;48.952;9.506;2023-05-10T05:37:30;97475.56;;;13.69;100.00
7802;BME280;3945;48.952;9.506;2023-05-10T05:39:56;97474.50;;;13.75;100.00
7802;BME280;3945;48.952;9.506;2023-05-10T05:42:22;97470.72;;;13.81;100.00
7802;BME280;3945;48.952;9.506;2023-05-10T05:44:48;97480.34;;;13.87;100.00
7802;BME280;3945;48.952;9.506;2023-05-10T05:47:15;97458.94;;;13.87;100.00
7802;BME280;3945;48.952;9.506;2023-05-10T05:49:43;97467.72;;;13.93;100.00
7802;BME280;3945;48.952;9.506;2023-05-10T05:52:10;97475.72;;;13.98;100.00
7802;BME280;3945;48.952;9.506;2023-05-10T05:54:37;97479.22;;;13.98;100.00
7802;BME280;3945;48.952;9.506;2023-05-10T05:57:03;97473.06;;;13.98;100.00
7802;BME280;3945;48.952;9.506;2023-05-10T05:59:29;97472.00;;;13.99;100.00
7802;BME280;3945;48.952;9.506;2023-05-10T06:01:56;97479.22;;;13.98;100.00
7802;BME280;3945;48.952;9.506;2023-05-10T06:04:22;97480.81;;;13.99;100.00
7802;BME280;3945;48.952;9.506;2023-05-10T06:06:50;97477.88;;;14.01;100.00
7802;BME280;3945;48.952;9.506;2023-05-10T06:09:16;97480.00;;;14.04;100.00
7802;BME280;3945;48.952;9.506;2023-05-10T06:11:42;97479.19;;;14.08;100.00
7802;BME280;3945;48.952;9.506;2023-05-10T06:14:09;97482.41;;;14.11;100.00
7802;BME280;3945;48.952;9.506;2023-05-10T06:16:35;97481.81;;;14.14;100.00
7802;BME280;3945;48.952;9.506;2023-05-10T06:19:02;97482.09;;;14.12;100.00
7802;BME280;3945;48.952;9.506;2023-05-10T06:21:28;97490.13;;;14.17;100.00
7802;BME280;3945;48.952;9.506;2023-05-10T06:23:56;97496.50;;;14.21;100.00
7802;BME280;3945;48.952;9.506;2023-05-10T06:26:22;97497.28;;;14.27;100.00
7802;BME280;3945;48.952;9.506;2023-05-10T06:28:49;97501.34;;;14.24;100.00
7802;BME280;3945;48.952;9.506;2023-05-10T06:31:15;97502.94;;;14.25;100.00
7802;BME280;3945;48.952;9.506;2023-05-10T06:33:42;97497.84;;;14.24;100.00
7802;BME280;3945;48.952;9.506;2023-05-10T06:36:09;97504.53;;;14.21;100.00
7802;BME280;3945;48.952;9.506;2023-05-10T06:38:35;97500.25;;;14.25;100.00
7802;BME280;3945;48.952;9.506;2023-05-10T06:41:03;97499.19;;;14.26;100.00
7802;BME280;3945;48.952;9.506;2023-05-10T06:43:30;97500.22;;;14.30;100.00
7802;BME280;3945;48.952;9.506;2023-05-10T06:45:57;97496.72;;;14.35;100.00
7802;BME280;3945;48.952;9.506;2023-05-10T06:48:23;97497.53;;;14.35;100.00
7802;BME280;3945;48.952;9.506;2023-05-10T06:50:49;97506.09;;;14.37;100.00
7802;BME280;3945;48.952;9.506;2023-05-10T06:53:16;97504.47;;;14.36;100.00
7802;BME280;3945;48.952;9.506;2023-05-10T06:55:42;97510.66;;;14.32;99.39
7802;BME280;3945;48.952;9.506;2023-05-10T06:58:10;97502.94;;;14.25;99.42
7802;BME280;3945;48.952;9.506;2023-05-10T07:00:36;97502.66;;;14.22;99.42
7802;BME280;3945;48.952;9.506;2023-05-10T07:03:05;97512.84;;;14.25;100.00
7802;BME280;3945;48.952;9.506;2023-05-10T07:05:31;97512.81;;;14.30;100.00
7802;BME280;3945;48.952;9.506;2023-05-10T07:07:58;97513.31;;;14.37;100.00
7802;BME280;3945;48.952;9.506;2023-05-10T07:10:24;97514.69;;;14.39;100.00
7802;BME280;3945;48.952;9.506;2023-05-10T07:12:51;97516.53;;;14.44;100.00
7802;BME280;3945;48.952;9.506;2023-05-10T07:15:19;97507.66;;;14.49;99.05
7802;BME280;3945;48.952;9.506;2023-05-10T07:17:45;97518.09;;;14.50;98.65
7802;BME280;3945;48.952;9.506;2023-05-10T07:20:12;97521.53;;;14.61;99.19
7802;BME280;3945;48.952;9.506;2023-05-10T07:22:38;97518.28;;;14.69;98.46
7802;BME280;3945;48.952;9.506;2023-05-10T07:25:05;97517.41;;;14.78;96.94
7802;BME280;3945;48.952;9.506;2023-05-10T07:27:32;97520.56;;;14.85;97.55
7802;BME280;3945;48.952;9.506;2023-05-10T07:29:58;97524.03;;;14.86;96.15
7802;BME280;3945;48.952;9.506;2023-05-10T07:32:26;97528.09;;;14.83;94.44
7802;BME280;3945;48.952;9.506;2023-05-10T07:34:53;97526.72;;;14.86;95.02
7802;BME280;3945;48.952;9.506;2023-05-10T07:37:19;97524.53;;;14.93;94.21
7802;BME280;3945;48.952;9.506;2023-05-10T07:39:45;97522.66;;;14.94;94.64
7802;BME280;3945;48.952;9.506;2023-05-10T07:42:12;97532.50;;;15.03;93.90
7802;BME280;3945;48.952;9.506;2023-05-10T07:44:38;97528.16;;;15.12;94.35
7802;BME280;3945;48.952;9.506;2023-05-10T07:47:05;97529.47;;;15.15;93.09
7802;BME280;3945;48.952;9.506;2023-05-10T07:49:32;97529.41;;;15.20;93.82
7802;BME280;3945;48.952;9.506;2023-05-10T07:51:59;97530.53;;;15.14;91.90
7802;BME280;3945;48.952;9.506;2023-05-10T07:54:25;97531.66;;;15.08;91.82
7802;BME280;3945;48.952;9.506;2023-05-10T07:56:51;97537.28;;;15.11;91.93
7802;BME280;3945;48.952;9.506;2023-05-10T07:59:18;97536.72;;;15.14;92.77
7802;BME280;3945;48.952;9.506;2023-05-10T08:01:45;97536.16;;;15.17;92.70
7802;BME280;3945;48.952;9.506;2023-05-10T08:04:11;97536.38;;;15.26;94.04
7802;BME280;3945;48.952;9.506;2023-05-10T08:06:39;97531.75;;;15.32;93.19
7802;BME280;3945;48.952;9.506;2023-05-10T08:09:05;97538.72;;;15.33;92.53
7802;BME280;3945;48.952;9.506;2023-05-10T08:11:31;97534.13;;;15.38;93.50
7802;BME280;3945;48.952;9.506;2023-05-10T08:13:58;97538.94;;;15.41;91.24
7802;BME280;3945;48.952;9.506;2023-05-10T08:16:24;97536.78;;;15.38;89.53
7802;BME280;3945;48.952;9.506;2023-05-10T08:18:51;97542.44;;;15.37;90.21
7802;BME280;3945;48.952;9.506;2023-05-10T08:21:17;97544.91;;;15.28;89.75
7802;BME280;3945;48.952;9.506;2023-05-10T08:23:45;97539.06;;;15.21;91.17
7802;BME280;3945;48.952;9.506;2023-05-10T08:26:11;97544.69;;;15.24;90.93
7802;BME280;3945;48.952;9.506;2023-05-10T08:28:38;97547.59;;;15.28;91.15
7802;BME280;3945;48.952;9.506;2023-05-10T08:31:04;97544.84;;;15.38;92.24
7802;BME280;3945;48.952;9.506;2023-05-10T08:33:30;97546.41;;;15.44;91.26
7802;BME280;3945;48.952;9.506;2023-05-10T08:35:57;97543.38;;;15.51;89.18
7802;BME280;3945;48.952;9.506;2023-05-10T08:38:23;97541.47;;;15.56;89.12
7802;BME280;3945;48.952;9.506;2023-05-10T08:40:51;97548.97;;;15.59;90.06
7802;BME280;3945;48.952;9.506;2023-05-10T08:43:21;97545.44;;;15.64;88.68
7802;BME280;3945;48.952;9.506;2023-05-10T08:45:47;97551.59;;;15.70;88.64
7802;BME280;3945;48.952;9.506;2023-05-10T08:48:15;97549.22;;;15.63;87.16
7802;BME280;3945;48.952;9.506;2023-05-10T08:50:41;97555.66;;;15.62;87.65
7802;BME280;3945;48.952;9.506;2023-05-10T08:53:09;97552.69;;;15.63;86.33
7802;BME280;3945;48.952;9.506;2023-05-10T08:55:35;97556.63;;;15.71;86.34
7802;BME280;3945;48.952;9.506;2023-05-10T08:58:05;97554.72;;;15.77;86.12
7802;BME280;3945;48.952;9.506;2023-05-10T09:00:31;97564.94;;;15.75;83.97
7802;BME280;3945;48.952;9.506;2023-05-10T09:02:58;97565.22;;;15.73;85.01
7802;BME280;3945;48.952;9.506;2023-05-10T09:05:24;97566.28;;;15.77;84.91
7802;BME280;3945;48.952;9.506;2023-05-10T09:07:50;97558.50;;;15.76;82.94
7802;BME280;3945;48.952;9.506;2023-05-10T09:10:18;97567.09;;;15.73;82.58
7802;BME280;3945;48.952;9.506;2023-05-10T09:12:44;97567.63;;;15.75;83.71
7802;BME280;3945;48.952;9.506;2023-05-10T09:15:13;97575.63;;;15.80;85.22
7802;BME280;3945;48.952;9.506;2023-05-10T09:17:41;97568.03;;;15.87;83.89
7802;BME280;3945;48.952;9.506;2023-05-10T09:20:08;97578.75;;;15.92;82.22
7802;BME280;3945;48.952;9.506;2023-05-10T09:22:34;97575.75;;;15.93;81.77
7802;BME280;3945;48.952;9.506;2023-05-10T09:25:05;97573.53;;;16.00;81.85
7802;BME280;3945;48.952;9.506;2023-05-10T09:27:31;97573.19;;;16.07;81.39
7802;BME280;3945;48.952;9.506;2023-05-10T09:29:57;97575.84;;;16.12;81.45
7802;BME280;3945;48.952;9.506;2023-05-10T09:32:29;97580.59;;;16.20;82.92
7802;BME280;3945;48.952;9.506;2023-05-10T09:35:05;97586.00;;;16.15;81.03
7802;BME280;3945;48.952;9.506;2023-05-10T09:37:32;97592.97;;;16.16;82.42
7802;BME280;3945;48.952;9.506;2023-05-10T09:39:58;97589.44;;;16.21;81.36
7802;BME280;3945;48.952;9.506;2023-05-10T09:42:24;97593.16;;;16.25;80.97
7802;BME280;3945;48.952;9.506;2023-05-10T09:44:51;97593.44;;;16.23;79.14
7802;BME280;3945;48.952;9.506;2023-05-10T09:47:17;97587.06;;;16.14;79.48
7802;BME280;3945;48.952;9.506;2023-05-10T09:49:45;97590.81;;;16.18;79.61
7802;BME280;3945;48.952;9.506;2023-05-10T09:52:15;97589.91;;;16.28;81.97
7802;BME280;3945;48.952;9.506;2023-05-10T09:54:42;97589.59;;;16.29;81.75
7802;BME280;3945;48.952;9.506;2023-05-10T09:57:18;97584.34;;;16.19;80.94
7802;BME280;3945;48.952;9.506;2023-05-10T09:59:45;97596.34;;;16.03;82.28
7802;BME280;3945;48.952;9.506;2023-05-10T10:02:13;97589.31;;;15.78;82.09
7802;BME280;3945;48.952;9.506;2023-05-10T10:04:39;97609.94;;;15.44;84.98
7802;BME280;3945;48.952;9.506;2023-05-10T10:07:07;97597.25;;;15.20;85.41
7802;BME280;3945;48.952;9.506;2023-05-10T10:09:34;97610.78;;;15.00;85.04
7802;BME280;3945;48.952;9.506;2023-05-10T10:12:00;97615.13;;;14.86;86.43
7802;BME280;3945;48.952;9.506;2023-05-10T10:14:27;97611.41;;;14.82;86.78
7802;BME280;3945;48.952;9.506;2023-05-10T10:16:54;97608.16;;;14.85;88.22
7802;BME280;3945;48.952;9.506;2023-05-10T10:19:21;97604.13;;;14.93;87.39
7802;BME280;3945;48.952;9.506;2023-05-10T10:21:47;97607.28;;;15.05;88.33
7802;BME280;3945;48.952;9.506;2023-05-10T10:24:15;97598.03;;;15.26;90.14
7802;BME280;3945;48.952;9.506;2023-05-10T10:26:41;97603.78;;;15.48;86.87
7802;BME280;3945;48.952;9.506;2023-05-10T10:29:10;97596.88;;;15.71;86.32
7802;BME280;3945;48.952;9.506;2023-05-10T10:31:41;97593.41;;;15.99;87.41
7802;BME280;3945;48.952;9.506;2023-05-10T10:34:17;97592.28;;;16.29;85.55
7802;BME280;3945;48.952;9.506;2023-05-10T10:36:48;97586.47;;;16.46;84.27
7802;BME280;3945;48.952;9.506;2023-05-10T10:39:16;97585.16;;;16.67;83.05
7802;BME280;3945;48.952;9.506;2023-05-10T10:41:49;97584.41;;;16.86;82.19
7802;BME280;3945;48.952;9.506;2023-05-10T10:44:35;97586.38;;;16.99;82.35
7802;BME280;3945;48.952;9.506;2023-05-10T10:47:06;97575.59;;;17.17;81.32
7802;BME280;3945;48.952;9.506;2023-05-10T10:49:43;97578.63;;;17.30;80.73
7802;BME280;3945;48.952;9.506;2023-05-10T10:52:23;97584.09;;;17.25;79.61
7802;BME280;3945;48.952;9.506;2023-05-10T10:54:56;97586.06;;;17.19;78.95
7802;BME280;3945;48.952;9.506;2023-05-10T10:57:24;97580.88;;;17.23;79.69
7802;BME280;3945;48.952;9.506;2023-05-10T10:59:51;97578.44;;;17.26;77.78
7802;BME280;3945;48.952;9.506;2023-05-10T11:04:59;97571.78;;;17.37;74.16
7802;BME280;3945;48.952;9.506;2023-05-10T11:07:25;97598.78;;;17.13;74.08
7802;BME280;3945;48.952;9.506;2023-05-10T11:09:53;97593.94;;;16.73;73.21
7802;BME280;3945;48.952;9.506;2023-05-10T11:12:20;97602.06;;;16.44;77.19
7802;BME280;3945;48.952;9.506;2023-05-10T11:14:49;97603.28;;;16.33;79.58
7802;BME280;3945;48.952;9.506;2023-05-10T11:17:26;97597.53;;;16.16;79.96
7802;BME280;3945;48.952;9.506;2023-05-10T11:20:08;97596.59;;;16.01;79.55
7802;BME280;3945;48.952;9.506;2023-05-10T11:22:48;97601.56;;;15.89;79.54
7802;BME280;3945;48.952;9.506;2023-05-10T11:25:17;97608.34;;;15.82;79.67
7802;BME280;3945;48.952;9.506;2023-05-10T11:27:43;97597.34;;;15.78;80.27
7802;BME280;3945;48.952;9.506;2023-05-10T11:30:10;97605.56;;;15.92;81.09
7802;BME280;3945;48.952;9.506;2023-05-10T11:32:37;97607.81;;;16.09;78.91
7802;BME280;3945;48.952;9.506;2023-05-10T11:35:06;97603.56;;;16.31;79.71
7802;BME280;3945;48.952;9.506;2023-05-10T11:37:32;97610.97;;;16.39;79.18
7802;BME280;3945;48.952;9.506;2023-05-10T11:39:59;97604.25;;;16.42;79.34
7802;BME280;3945;48.952;9.506;2023-05-10T11:42:28;97612.69;;;16.30;79.12
7802;BME280;3945;48.952;9.506;2023-05-10T11:44:55;97612.00;;;16.20;78.64
7802;BME280;3945;48.952;9.506;2023-05-10T11:47:21;97621.16;;;15.90;77.53
7802;BME280;3945;48.952;9.506;2023-05-10T11:49:47;97624.19;;;15.78;78.42
7802;BME280;3945;48.952;9.506;2023-05-10T11:52:15;97628.69;;;15.54;74.67
7802;BME280;3945;48.952;9.506;2023-05-10T11:54:44;97623.94;;;15.36;76.43
7802;BME280;3945;48.952;9.506;2023-05-10T11:57:11;97626.72;;;15.20;75.45
7802;BME280;3945;48.952;9.506;2023-05-10T11:59:39;97632.16;;;15.10;75.31
7802;BME280;3945;48.952;9.506;2023-05-10T12:02:05;97631.72;;;14.98;76.17
7802;BME280;3945;48.952;9.506;2023-05-10T12:04:31;97638.94;;;14.93;77.21
7802;BME280;3945;48.952;9.506;2023-05-10T12:06:58;97635.22;;;14.89;76.77
7802;BME280;3945;48.952;9.506;2023-05-10T12:09:25;97641.34;;;14.94;77.91
7802;BME280;3945;48.952;9.506;2023-05-10T12:11:54;97636.75;;;15.00;78.45
7802;BME280;3945;48.952;9.506;2023-05-10T12:14:21;97634.53;;;15.17;78.45
7802;BME280;3945;48.952;9.506;2023-05-10T12:16:51;97629.84;;;15.38;76.17
7802;BME280;3945;48.952;9.506;2023-05-10T12:19:18;97628.66;;;15.59;79.10
7802;BME280;3945;48.952;9.506;2023-05-10T12:21:44;97626.53;;;15.85;78.50
7802;BME280;3945;48.952;9.506;2023-05-10T12:24:11;97627.41;;;16.09;79.73
7802;BME280;3945;48.952;9.506;2023-05-10T12:26:37;97630.69;;;16.30;77.82
7802;BME280;3945;48.952;9.506;2023-05-10T12:29:13;97632.19;;;16.41;74.78
7802;BME280;3945;48.952;9.506;2023-05-10T12:31:52;97630.25;;;16.47;74.97
7802;BME280;3945;48.952;9.506;2023-05-10T12:34:25;97647.75;;;16.68;75.94
7802;BME280;3945;48.952;9.506;2023-05-10T12:36:51;97634.03;;;16.69;74.42
7802;BME280;3945;48.952;9.506;2023-05-10T12:39:18;97636.56;;;16.61;74.24
7802;BME280;3945;48.952;9.506;2023-05-10T12:41:44;97644.06;;;16.64;74.47
7802;BME280;3945;48.952;9.506;2023-05-10T12:44:11;97637.56;;;16.65;74.81
7802;BME280;3945;48.952;9.506;2023-05-10T12:46:37;97639.06;;;16.76;74.75
7802;BME280;3945;48.952;9.506;2023-05-10T12:49:05;97639.81;;;16.82;74.85
7802;BME280;3945;48.952;9.506;2023-05-10T12:51:31;97640.84;;;16.86;72.53
7802;BME280;3945;48.952;9.506;2023-05-10T12:53:57;97642.81;;;16.99;73.12
7802;BME280;3945;48.952;9.506;2023-05-10T12:56:24;97638.72;;;17.01;69.79
7802;BME280;3945;48.952;9.506;2023-05-10T12:58:50;97642.00;;;16.98;70.26
7802;BME280;3945;48.952;9.506;2023-05-10T13:01:17;97640.69;;;16.96;69.65
7802;BME280;3945;48.952;9.506;2023-05-10T13:03:43;97635.25;;;17.01;71.21
7802;BME280;3945;48.952;9.506;2023-05-10T13:06:11;97642.50;;;17.00;70.53
7802;BME280;3945;48.952;9.506;2023-05-10T13:08:38;97640.53;;;16.87;69.45
7802;BME280;3945;48.952;9.506;2023-05-10T13:11:05;97642.56;;;16.76;71.77
7802;BME280;3945;48.952;9.506;2023-05-10T13:13:31;97643.72;;;16.70;72.13
7802;BME280;3945;48.952;9.506;2023-05-10T13:15:57;97637.88;;;16.58;71.77
7802;BME280;3945;48.952;9.506;2023-05-10T13:18:24;97652.53;;;16.47;72.45
7802;BME280;3945;48.952;9.506;2023-05-10T13:20:51;97647.78;;;16.39;70.92
7802;BME280;3945;48.952;9.506;2023-05-10T13:23:18;97655.72;;;16.25;69.96